createdAt,value
2023-05-09T00:00:29.298Z,101491.97
2023-05-09T00:03:15.482Z,101480.19
2023-05-09T00:06:02.522Z,101496.59
2023-05-09T00:08:48.643Z,101485.38
2023-05-09T00:11:34.900Z,101478.53
2023-05-09T00:14:20.499Z,101476.63
2023-05-09T00:17:07.925Z,101435.25
2023-05-09T00:19:53.929Z,101486.22
2023-05-09T00:22:41.230Z,101478.28
2023-05-09T00:25:27.113Z,101475.81
2023-05-09T00:28:13.124Z,101443.50
2023-05-09T00:30:58.633Z,101473.63
2023-05-09T00:33:45.134Z,101453.88
2023-05-09T00:36:32.241Z,101464.84
2023-05-09T00:39:18.400Z,101437.44
2023-05-09T00:42:04.869Z,101423.44
2023-05-09T00:44:53.606Z,101426.75
2023-05-09T00:47:39.771Z,101461.56
2023-05-09T00:50:26.297Z,101454.41
2023-05-09T00:53:13.003Z,101461.22
2023-05-09T00:56:00.822Z,101447.00
2023-05-09T00:58:46.384Z,101458.72
2023-05-09T01:01:32.927Z,101452.41
2023-05-09T01:04:18.937Z,101440.06
2023-05-09T01:07:12.065Z,101415.84
2023-05-09T01:10:22.144Z,101435.09
2023-05-09T01:13:32.571Z,101458.69
2023-05-09T01:16:30.166Z,101458.34
2023-05-09T01:19:22.609Z,101450.63
2023-05-09T01:22:09.502Z,101446.28
2023-05-09T01:25:29.723Z,101448.59
2023-05-09T01:28:49.248Z,101455.44
2023-05-09T01:31:38.748Z,101456.06
2023-05-09T01:34:29.414Z,101449.25
2023-05-09T01:37:16.530Z,101441.84
2023-05-09T01:40:13.519Z,101430.34
2023-05-09T01:43:06.423Z,101444.88
2023-05-09T01:45:52.753Z,101425.97
2023-05-09T01:48:39.543Z,101450.56
2023-05-09T01:51:27.228Z,101437.06
2023-05-09T01:54:13.796Z,101438.66
2023-05-09T01:57:00.066Z,101446.28
2023-05-09T01:59:48.215Z,101390.34
2023-05-09T02:02:34.107Z,101418.81
2023-05-09T02:05:21.696Z,101436.09
2023-05-09T02:08:08.920Z,101430.44
2023-05-09T02:10:55.162Z,101395.44
2023-05-09T02:13:41.208Z,101396.88
2023-05-09T02:16:28.044Z,101425.09
2023-05-09T02:19:14.472Z,101395.00
2023-05-09T02:22:00.727Z,101431.69
2023-05-09T02:24:46.344Z,101415.56
2023-05-09T02:27:34.230Z,101431.44
2023-05-09T02:30:25.279Z,101403.81
2023-05-09T02:33:12.811Z,101401.06
2023-05-09T02:35:59.003Z,101407.63
2023-05-09T02:38:46.087Z,101428.13
2023-05-09T02:41:32.114Z,101410.63
2023-05-09T02:44:17.963Z,101418.03
2023-05-09T02:47:05.319Z,101377.78
2023-05-09T02:49:51.728Z,101413.94
2023-05-09T02:52:37.893Z,101369.56
2023-05-09T02:55:24.635Z,101380.69
2023-05-09T02:58:14.669Z,101415.97
2023-05-09T03:01:02.935Z,101420.03
2023-05-09T03:03:48.903Z,101409.72
2023-05-09T03:06:38.965Z,101378.81
2023-05-09T03:09:24.739Z,101381.56
2023-05-09T03:12:11.008Z,101416.00
2023-05-09T03:14:57.095Z,101427.03
2023-05-09T03:17:43.468Z,101415.41
2023-05-09T03:20:30.163Z,101423.31
2023-05-09T03:23:16.205Z,101401.47
2023-05-09T03:26:01.841Z,101409.75
2023-05-09T03:28:49.112Z,101412.34
2023-05-09T03:31:35.183Z,101425.00
2023-05-09T03:34:21.381Z,101426.72
2023-05-09T03:37:07.588Z,101374.53
2023-05-09T03:39:57.802Z,101427.31
2023-05-09T03:42:44.838Z,101427.50
2023-05-09T03:45:30.708Z,101430.88
2023-05-09T03:48:17.124Z,101413.66
2023-05-09T03:51:09.888Z,101418.84
2023-05-09T03:54:00.115Z,101416.06
2023-05-09T03:56:45.845Z,101389.69
2023-05-09T03:59:32.420Z,101425.63
2023-05-09T04:02:19.451Z,101437.06
2023-05-09T04:05:06.687Z,101428.31
2023-05-09T04:07:53.089Z,101388.06
2023-05-09T04:10:39.548Z,101387.69
2023-05-09T04:13:26.003Z,101386.03
2023-05-09T04:16:12.644Z,101411.94
2023-05-09T04:18:58.760Z,101405.00
2023-05-09T04:21:45.036Z,101411.09
2023-05-09T04:24:31.198Z,101411.72
2023-05-09T04:27:17.433Z,101434.19
2023-05-09T04:30:03.946Z,101425.41
2023-05-09T04:32:50.951Z,101400.78
2023-05-09T04:35:38.338Z,101404.25
2023-05-09T04:38:24.684Z,101434.06
2023-05-09T04:41:11.132Z,101421.13
2023-05-09T04:43:57.496Z,101431.16
2023-05-09T04:46:45.914Z,101429.94
2023-05-09T04:49:32.347Z,101432.03
2023-05-09T04:52:18.048Z,101411.63
2023-05-09T04:55:04.586Z,101423.97
2023-05-09T04:57:55.496Z,101393.22
2023-05-09T05:00:41.543Z,101435.75
2023-05-09T05:03:28.832Z,101432.41
2023-05-09T05:06:15.139Z,101401.47
2023-05-09T05:09:01.870Z,101421.38
2023-05-09T05:11:59.536Z,101406.56
2023-05-09T05:14:48.675Z,101408.38
2023-05-09T05:17:38.898Z,101424.81
2023-05-09T05:20:26.246Z,101415.84
2023-05-09T05:23:12.541Z,101421.75
2023-05-09T05:25:58.768Z,101423.03
2023-05-09T05:28:46.025Z,101434.94
2023-05-09T05:31:32.744Z,101432.84
2023-05-09T05:34:19.280Z,101415.91
2023-05-09T05:37:05.750Z,101424.81
2023-05-09T05:39:52.306Z,101422.72
2023-05-09T05:42:38.505Z,101417.88
2023-05-09T05:45:25.138Z,101421.59
2023-05-09T05:48:13.673Z,101402.41
2023-05-09T05:51:00.148Z,101425.56
2023-05-09T05:53:49.430Z,101400.22
2023-05-09T05:56:35.954Z,101434.78
2023-05-09T05:59:21.884Z,101440.53
2023-05-09T06:02:08.959Z,101409.38
2023-05-09T06:04:56.181Z,101420.19
2023-05-09T06:07:44.290Z,101429.09
2023-05-09T06:10:30.174Z,101411.56
2023-05-09T06:13:16.591Z,101420.97
2023-05-09T06:16:18.064Z,101425.34
2023-05-09T06:19:07.383Z,101427.19
2023-05-09T06:21:52.918Z,101414.63
2023-05-09T06:24:40.366Z,101424.03
2023-05-09T06:27:27.951Z,101419.72
2023-05-09T06:30:25.554Z,101428.84
2023-05-09T06:33:12.936Z,101400.94
2023-05-09T06:36:00.402Z,101422.47
2023-05-09T06:38:46.387Z,101410.81
2023-05-09T06:41:33.238Z,101409.94
2023-05-09T06:44:19.293Z,101416.97
2023-05-09T06:47:05.689Z,101412.44
2023-05-09T06:49:51.903Z,101419.91
2023-05-09T06:52:37.877Z,101404.59
2023-05-09T06:55:23.494Z,101402.69
2023-05-09T06:58:09.299Z,101405.63
2023-05-09T07:00:54.929Z,101397.47
2023-05-09T07:03:41.077Z,101405.63
2023-05-09T07:06:27.172Z,101394.16
2023-05-09T07:09:28.911Z,101384.66
2023-05-09T07:12:14.720Z,101365.81
2023-05-09T07:15:01.475Z,101393.94
2023-05-09T07:17:47.919Z,101390.22
2023-05-09T07:20:34.606Z,101401.78
2023-05-09T07:23:21.302Z,101398.22
2023-05-09T07:26:07.909Z,101385.19
2023-05-09T07:28:54.499Z,101379.53
2023-05-09T07:31:40.659Z,101380.72
2023-05-09T07:34:26.838Z,101368.53
2023-05-09T07:37:14.541Z,101370.53
2023-05-09T07:40:02.129Z,101367.69
2023-05-09T07:42:50.126Z,101358.59
2023-05-09T07:45:36.622Z,101360.88
2023-05-09T07:48:23.323Z,101343.94
2023-05-09T07:51:09.322Z,101368.38
2023-05-09T07:53:56.659Z,101357.97
2023-05-09T07:56:42.433Z,101348.19
2023-05-09T07:59:29.233Z,101357.28
2023-05-09T08:02:15.860Z,101363.41
2023-05-09T08:05:02.291Z,101357.41
2023-05-09T08:07:48.929Z,101325.53
2023-05-09T08:10:35.244Z,101348.19
2023-05-09T08:13:22.625Z,101338.28
2023-05-09T08:16:08.956Z,101333.25
2023-05-09T08:18:55.264Z,101319.53
2023-05-09T08:21:41.393Z,101345.41
2023-05-09T08:24:27.015Z,101338.63
2023-05-09T08:27:14.134Z,101322.03
2023-05-09T08:30:00.484Z,101316.00
2023-05-09T08:32:46.457Z,101310.44
2023-05-09T08:35:32.719Z,101281.94
2023-05-09T08:38:19.518Z,101313.84
2023-05-09T08:41:05.688Z,101324.41
2023-05-09T08:43:52.650Z,101320.97
2023-05-09T08:46:40.155Z,101304.50
2023-05-09T08:49:26.899Z,101296.19
2023-05-09T08:52:13.899Z,101295.19
2023-05-09T08:55:06.687Z,101312.88
2023-05-09T08:57:52.863Z,101275.75
2023-05-09T09:00:39.553Z,101301.16
2023-05-09T09:03:26.473Z,101294.28
2023-05-09T09:06:13.448Z,101284.13
2023-05-09T09:09:00.101Z,101280.84
2023-05-09T09:11:47.653Z,101295.25
2023-05-09T09:14:36.988Z,101244.75
2023-05-09T09:17:29.181Z,101287.91
2023-05-09T09:20:16.661Z,101261.50
2023-05-09T09:23:05.642Z,101280.22
2023-05-09T09:25:59.769Z,101272.19
2023-05-09T09:28:47.151Z,101240.06
2023-05-09T09:31:33.438Z,101268.91
2023-05-09T09:34:21.618Z,101279.19
2023-05-09T09:37:08.202Z,101279.97
2023-05-09T09:39:55.853Z,101263.56
2023-05-09T09:42:48.569Z,101261.44
2023-05-09T09:45:36.803Z,101246.97
2023-05-09T09:48:26.979Z,101261.16
2023-05-09T09:51:13.143Z,101248.00
2023-05-09T09:54:02.657Z,101242.63
2023-05-09T09:56:56.722Z,101249.59
2023-05-09T09:59:58.658Z,101219.47
2023-05-09T10:02:53.031Z,101215.75
2023-05-09T10:05:40.942Z,101241.94
2023-05-09T10:08:27.797Z,101229.91
2023-05-09T10:11:14.565Z,101242.75
2023-05-09T10:14:00.895Z,101217.53
2023-05-09T10:16:48.775Z,101192.31
2023-05-09T10:19:36.215Z,101195.88
2023-05-09T10:22:22.592Z,101203.72
2023-05-09T10:25:15.094Z,101200.63
2023-05-09T10:28:02.045Z,101185.78
2023-05-09T10:31:01.853Z,101191.16
2023-05-09T10:33:49.104Z,101180.72
2023-05-09T10:36:36.591Z,101174.53
2023-05-09T10:39:23.356Z,101183.34
2023-05-09T10:42:13.943Z,101184.19
2023-05-09T10:45:00.325Z,101187.75
2023-05-09T10:47:50.061Z,101147.88
2023-05-09T10:50:38.091Z,101139.56
2023-05-09T10:53:24.917Z,101170.44
2023-05-09T10:56:27.155Z,101137.13
2023-05-09T10:59:40.549Z,101152.91
2023-05-09T11:02:29.614Z,101165.59
2023-05-09T11:05:17.456Z,101155.22
2023-05-09T11:08:23.697Z,101156.69
2023-05-09T11:11:24.619Z,101143.66
2023-05-09T11:14:29.545Z,101104.63
2023-05-09T11:17:29.226Z,101124.63
2023-05-09T11:20:14.753Z,101120.22
2023-05-09T11:23:01.553Z,101102.66
2023-05-09T11:25:48.495Z,101116.16
2023-05-09T11:28:38.762Z,101079.72
2023-05-09T11:31:25.153Z,101108.22
2023-05-09T11:34:11.742Z,101094.03
2023-05-09T11:37:09.736Z,101101.84
2023-05-09T11:40:05.775Z,101101.03
2023-05-09T11:42:58.277Z,101099.75
2023-05-09T11:45:46.540Z,101086.75
2023-05-09T11:48:40.030Z,101092.28
2023-05-09T11:51:26.962Z,101055.31
2023-05-09T11:54:15.126Z,101042.00
2023-05-09T11:57:01.382Z,101077.28
2023-05-09T11:59:48.366Z,101066.41
2023-05-09T12:02:35.493Z,101060.88
2023-05-09T12:05:23.090Z,101059.09
2023-05-09T12:08:12.083Z,101036.78
2023-05-09T12:11:09.049Z,101059.22
2023-05-09T12:13:55.502Z,101050.31
2023-05-09T12:16:48.213Z,101032.75
2023-05-09T12:19:37.352Z,101028.97
2023-05-09T12:22:25.891Z,101035.16
2023-05-09T12:25:13.406Z,101033.84
2023-05-09T12:28:02.180Z,101049.13
2023-05-09T12:30:49.977Z,101032.72
2023-05-09T12:33:39.344Z,100995.31
2023-05-09T12:36:26.450Z,101013.53
2023-05-09T12:39:12.455Z,101005.22
2023-05-09T12:42:02.058Z,101018.84
2023-05-09T12:44:50.059Z,101018.53
2023-05-09T12:47:37.335Z,101001.63
2023-05-09T12:50:32.393Z,101002.59
2023-05-09T12:53:29.478Z,101003.56
2023-05-09T12:56:17.979Z,101002.59
2023-05-09T12:59:04.426Z,100997.72
2023-05-09T13:01:58.456Z,100992.81
2023-05-09T13:04:44.760Z,100970.38
2023-05-09T13:07:58.816Z,100985.50
2023-05-09T13:10:45.224Z,100947.34
2023-05-09T13:13:34.994Z,100984.03
2023-05-09T13:16:21.297Z,100953.53
2023-05-09T13:19:08.575Z,100975.44
2023-05-09T13:21:58.013Z,100947.94
2023-05-09T13:24:45.001Z,100958.50
2023-05-09T13:27:33.082Z,100910.75
2023-05-09T13:30:19.639Z,100943.09
2023-05-09T13:33:23.841Z,100954.13
2023-05-09T13:36:10.386Z,100922.09
2023-05-09T13:38:56.569Z,100923.50
2023-05-09T13:41:42.788Z,100932.97
2023-05-09T13:44:29.297Z,100922.38
2023-05-09T13:47:14.785Z,100908.56
2023-05-09T13:50:01.194Z,100916.56
2023-05-09T13:52:47.692Z,100912.00
2023-05-09T13:55:35.283Z,100922.44
2023-05-09T13:58:21.487Z,100912.34
2023-05-09T14:01:07.889Z,100877.75
2023-05-09T14:03:54.293Z,100907.28
2023-05-09T14:06:40.774Z,100903.50
2023-05-09T14:09:28.472Z,100897.47
2023-05-09T14:12:15.473Z,100860.97
2023-05-09T14:15:02.438Z,100884.03
2023-05-09T14:17:49.109Z,100863.22
2023-05-09T14:20:35.571Z,100887.41
2023-05-09T14:23:22.540Z,100881.91
2023-05-09T14:26:08.649Z,100860.47
2023-05-09T14:28:54.883Z,100852.16
2023-05-09T14:31:41.356Z,100867.56
2023-05-09T14:34:27.510Z,100833.97
2023-05-09T14:37:16.353Z,100850.66
2023-05-09T14:40:05.718Z,100867.53
2023-05-09T14:42:51.781Z,100859.41
2023-05-09T14:45:37.863Z,100858.78
2023-05-09T14:48:24.150Z,100840.25
2023-05-09T14:51:10.308Z,100863.63
2023-05-09T14:53:56.205Z,100844.63
2023-05-09T14:56:42.893Z,100835.50
2023-05-09T14:59:28.734Z,100831.66
2023-05-09T15:02:15.365Z,100823.69
2023-05-09T15:05:01.294Z,100811.84
2023-05-09T15:07:47.624Z,100809.53
2023-05-09T15:10:35.225Z,100824.16
2023-05-09T15:13:21.850Z,100823.38
2023-05-09T15:16:08.954Z,100797.72
2023-05-09T15:18:55.644Z,100772.22
2023-05-09T15:21:44.366Z,100804.69
2023-05-09T15:24:30.858Z,100800.78
2023-05-09T15:27:17.111Z,100793.91
2023-05-09T15:30:06.097Z,100789.81
2023-05-09T15:32:53.453Z,100783.44
2023-05-09T15:35:44.275Z,100785.13
2023-05-09T15:38:30.528Z,100772.97
2023-05-09T15:41:17.404Z,100774.88
2023-05-09T15:44:03.685Z,100757.72
2023-05-09T15:46:53.174Z,100781.75
2023-05-09T15:49:40.167Z,100761.78
2023-05-09T15:52:27.899Z,100742.28
2023-05-09T15:55:14.495Z,100751.03
2023-05-09T15:58:00.865Z,100754.44
2023-05-09T16:00:46.729Z,100723.28
2023-05-09T16:03:32.882Z,100745.00
2023-05-09T16:06:19.243Z,100719.00
2023-05-09T16:09:07.439Z,100722.25
2023-05-09T16:11:54.315Z,100742.56
2023-05-09T16:14:41.062Z,100675.28
2023-05-09T16:17:27.342Z,100730.75
2023-05-09T16:20:14.497Z,100710.25
2023-05-09T16:23:00.874Z,100715.97
2023-05-09T16:25:50.024Z,100721.50
2023-05-09T16:28:36.325Z,100723.13
2023-05-09T16:31:26.496Z,100697.00
2023-05-09T16:34:13.363Z,100700.72
2023-05-09T16:37:00.179Z,100699.94
2023-05-09T16:39:47.387Z,100700.25
2023-05-09T16:42:33.469Z,100708.53
2023-05-09T16:45:19.959Z,100693.78
2023-05-09T16:48:06.863Z,100705.59
2023-05-09T16:50:53.944Z,100701.41
2023-05-09T16:53:41.268Z,100703.00
2023-05-09T16:56:28.248Z,100689.25
2023-05-09T16:59:15.757Z,100690.72
2023-05-09T17:02:02.403Z,100696.25
2023-05-09T17:04:48.854Z,100685.69
2023-05-09T17:07:34.789Z,100671.13
2023-05-09T17:10:22.143Z,100672.28
2023-05-09T17:13:09.041Z,100686.56
2023-05-09T17:15:55.222Z,100686.09
2023-05-09T17:18:46.058Z,100684.66
2023-05-09T17:21:35.306Z,100673.31
2023-05-09T17:24:22.086Z,100667.31
2023-05-09T17:27:09.921Z,100655.81
2023-05-09T17:29:56.098Z,100637.19
2023-05-09T17:32:43.241Z,100651.94
2023-05-09T17:35:30.481Z,100640.94
2023-05-09T17:38:17.481Z,100636.78
2023-05-09T17:41:04.215Z,100659.06
2023-05-09T17:43:51.959Z,100654.59
2023-05-09T17:46:38.465Z,100618.25
2023-05-09T17:49:25.262Z,100659.28
2023-05-09T17:52:11.320Z,100639.59
2023-05-09T17:54:57.402Z,100650.41
2023-05-09T17:57:43.754Z,100662.59
2023-05-09T18:00:30.077Z,100669.06
2023-05-09T18:03:16.429Z,100665.03
2023-05-09T18:06:02.803Z,100653.22
2023-05-09T18:08:49.255Z,100653.38
2023-05-09T18:11:35.369Z,100655.00
2023-05-09T18:14:21.765Z,100658.41
2023-05-09T18:17:08.126Z,100665.84
2023-05-09T18:19:54.269Z,100653.50
2023-05-09T18:22:40.921Z,100663.84
2023-05-09T18:25:27.265Z,100566.47
2023-05-09T18:28:13.568Z,100646.28
2023-05-09T18:31:00.812Z,100646.06
2023-05-09T18:33:47.545Z,100601.25
2023-05-09T18:36:33.597Z,100652.47
2023-05-09T18:39:20.030Z,100659.06
2023-05-09T18:42:06.682Z,100648.19
2023-05-09T18:44:53.522Z,100663.69
2023-05-09T18:47:40.204Z,100662.63
2023-05-09T18:50:27.184Z,100623.59
2023-05-09T18:53:13.876Z,100656.53
2023-05-09T18:56:01.691Z,100666.91
2023-05-09T18:58:50.345Z,100654.25
2023-05-09T19:01:38.096Z,100660.22
2023-05-09T19:04:25.553Z,100672.22
2023-05-09T19:07:13.584Z,100677.00
2023-05-09T19:10:01.281Z,100674.69
2023-05-09T19:12:49.297Z,100663.75
2023-05-09T19:15:35.759Z,100673.09
2023-05-09T19:18:22.358Z,100648.59
2023-05-09T19:24:13.168Z,100667.72
2023-05-09T19:26:59.843Z,100638.75
2023-05-09T19:29:47.503Z,100643.75
2023-05-09T19:32:36.315Z,100654.72
2023-05-09T19:35:23.015Z,100651.78
2023-05-09T19:38:10.963Z,100664.28
2023-05-09T19:40:57.312Z,100660.94
2023-05-09T19:43:43.809Z,100649.25
2023-05-09T19:46:31.000Z,100619.97
2023-05-09T19:49:17.989Z,100660.25
2023-05-09T19:52:05.108Z,100642.88
2023-05-09T19:54:51.621Z,100623.16
2023-05-09T19:57:38.034Z,100661.97
2023-05-09T20:00:24.288Z,100642.25
2023-05-09T20:03:11.079Z,100646.81
2023-05-09T20:09:01.631Z,100663.00
2023-05-09T20:11:48.540Z,100665.50
2023-05-09T20:14:34.764Z,100655.66
2023-05-09T20:17:20.719Z,100648.22
2023-05-09T20:20:08.320Z,100640.09
2023-05-09T20:22:56.880Z,100653.44
2023-05-09T20:25:43.319Z,100648.03
2023-05-09T20:28:29.836Z,100644.28
2023-05-09T20:31:16.090Z,100630.03
2023-05-09T20:34:02.187Z,100652.38
2023-05-09T20:36:52.164Z,100647.00
2023-05-09T20:39:38.590Z,100642.72
2023-05-09T20:42:25.967Z,100649.84
2023-05-09T20:45:11.948Z,100642.31
2023-05-09T20:47:59.146Z,100638.75
2023-05-09T20:50:45.262Z,100645.16
2023-05-09T20:53:32.507Z,100642.50
2023-05-09T20:56:19.565Z,100638.00
2023-05-09T20:59:06.022Z,100634.50
2023-05-09T21:01:53.211Z,100641.94
2023-05-09T21:04:40.090Z,100635.78
2023-05-09T21:07:26.383Z,100636.72
2023-05-09T21:10:13.475Z,100636.75
2023-05-09T21:13:02.337Z,100636.03
2023-05-09T21:15:50.538Z,100634.38
2023-05-09T21:18:36.905Z,100631.44
2023-05-09T21:21:23.489Z,100623.59
2023-05-09T21:24:09.884Z,100635.75
2023-05-09T21:26:56.135Z,100638.50
2023-05-09T21:29:42.382Z,100625.47
2023-05-09T21:32:28.862Z,100618.13
2023-05-09T21:35:15.430Z,100628.72
2023-05-09T21:38:01.328Z,100623.31
2023-05-09T21:40:47.238Z,100606.28
2023-05-09T21:43:33.552Z,100615.53
2023-05-09T21:46:19.281Z,100593.41
2023-05-09T21:49:05.586Z,100614.13
2023-05-09T21:51:51.318Z,100610.94
2023-05-09T21:54:37.505Z,100611.81
2023-05-09T21:57:23.029Z,100621.59
2023-05-09T22:00:14.303Z,100608.22
2023-05-09T22:03:01.202Z,100589.59
2023-05-09T22:05:47.172Z,100613.31
2023-05-09T22:08:32.856Z,100596.06
2023-05-09T22:11:19.446Z,100609.75
2023-05-09T22:14:05.116Z,100619.13
2023-05-09T22:16:51.560Z,100612.97
2023-05-09T22:19:38.299Z,100608.91
2023-05-09T22:22:24.844Z,100604.59
2023-05-09T22:25:10.522Z,100606.28
2023-05-09T22:27:56.896Z,100599.00
2023-05-09T22:30:42.897Z,100590.63
2023-05-09T22:33:29.253Z,100605.63
2023-05-09T22:36:14.883Z,100609.75
2023-05-09T22:39:01.524Z,100602.13
2023-05-09T22:41:48.013Z,100592.94
2023-05-09T22:44:34.313Z,100587.78
2023-05-09T22:47:22.436Z,100601.16
2023-05-09T22:50:09.388Z,100600.63
2023-05-09T22:52:55.107Z,100574.84
2023-05-09T22:55:41.459Z,100573.19
2023-05-09T22:58:27.679Z,100574.03
2023-05-09T23:01:13.543Z,100594.69
2023-05-09T23:04:01.192Z,100600.97
2023-05-09T23:06:47.404Z,100593.09
2023-05-09T23:09:33.426Z,100571.88
2023-05-09T23:12:19.971Z,100587.59
2023-05-09T23:15:07.537Z,100576.19
2023-05-09T23:17:53.936Z,100583.00
2023-05-09T23:20:40.002Z,100564.25
2023-05-09T23:23:25.989Z,100561.84
2023-05-09T23:26:11.740Z,100562.03
2023-05-09T23:28:58.445Z,100571.03
2023-05-09T23:31:44.219Z,100575.97
2023-05-09T23:34:31.088Z,100567.25
2023-05-09T23:37:17.367Z,100550.41
2023-05-09T23:40:04.619Z,100569.72
2023-05-09T23:42:50.115Z,100531.91
2023-05-09T23:45:36.290Z,100565.34
2023-05-09T23:48:22.060Z,100564.84
2023-05-09T23:51:08.375Z,100568.41
2023-05-09T23:53:56.199Z,100525.19
2023-05-09T23:56:42.464Z,100558.66
2023-05-09T23:59:27.930Z,100555.66
